Time;durP1;ratioP1;P1;durP2;ratioP2;P2;SDS_P1;SDS_P2;PMS_P1;PMS_P2;Temp;Humidity;BMP_temperature;BMP_pressure;BME280_temperature;BME280_humidity;BME280_pressure;Samples;Min_cycle;Max_cycle;Signal;HPM_P1;HPM_P2
2021/01/14 00:01:13;;;;;;;2.97;1.58;;;0.60;99.90;;;;;;5025521;28;20052;-44
2021/01/14 00:03:39;;;;;;;4.75;2.08;;;0.60;99.90;;;;;;5028102;28;20372;-43
2021/01/14 00:06:05;;;;;;;2.80;1.63;;;0.60;99.90;;;;;;5026371;28;20518;-42
2021/01/14 00:08:30;;;;;;;3.95;1.92;;;0.60;99.90;;;;;;5024685;28;20033;-42
2021/01/14 00:10:56;;;;;;;2.30;1.40;;;0.60;99.90;;;;;;5021819;28;20436;-44
2021/01/14 00:13:21;;;;;;;2.35;1.55;;;0.70;99.90;;;;;;5023566;28;20056;-44
2021/01/14 00:15:47;;;;;;;14.38;1.83;;;0.70;99.90;;;;;;5033014;28;20137;-42
2021/01/14 00:18:12;;;;;;;3.10;1.30;;;0.70;99.90;;;;;;5020461;28;20370;-45
2021/01/14 00:20:38;;;;;;;4.95;1.48;;;0.70;99.90;;;;;;5028336;28;20029;-44
2021/01/14 00:23:04;;;;;;;2.40;1.52;;;0.70;99.90;;;;;;5022024;28;20032;-42
2021/01/14 00:25:29;;;;;;;5.28;1.50;;;0.70;99.90;;;;;;5019491;28;20052;-45
2021/01/14 00:27:55;;;;;;;3.17;1.67;;;0.70;99.90;;;;;;5016247;28;20041;-44
2021/01/14 00:30:29;;;;;;;4.35;1.48;;;0.70;99.90;;;;;;5025049;28;20380;-42
2021/01/14 00:32:56;;;;;;;1.83;1.10;;;0.70;99.90;;;;;;5020532;28;20535;-42
2021/01/14 00:35:22;;;;;;;4.28;1.25;;;0.70;99.90;;;;;;5017486;28;20021;-42
2021/01/14 00:37:50;;;;;;;2.20;1.60;;;0.70;99.90;;;;;;5023822;28;20388;-45
2021/01/14 00:40:37;;;;;;;2.88;1.60;;;0.70;99.90;;;;;;5022845;28;20543;-42
2021/01/14 00:43:05;;;;;;;4.40;2.17;;;0.70;99.90;;;;;;5022449;28;20032;-43
2021/01/14 00:45:33;;;;;;;3.85;1.77;;;0.70;99.90;;;;;;5022717;28;20040;-45
2021/01/14 00:47:59;;;;;;;2.67;1.55;;;0.80;99.90;;;;;;5026878;28;20060;-42
2021/01/14 00:50:26;;;;;;;3.22;1.40;;;0.80;99.90;;;;;;5021802;28;20404;-45
2021/01/14 00:52:51;;;;;;;3.78;1.98;;;0.80;99.90;;;;;;5026958;28;20436;-42
2021/01/14 00:55:17;;;;;;;2.25;1.63;;;0.80;99.90;;;;;;5025257;28;20041;-42
2021/01/14 00:57:44;;;;;;;2.95;1.40;;;0.80;99.90;;;;;;5021281;28;20042;-42
2021/01/14 01:00:12;;;;;;;2.22;1.73;;;0.80;99.90;;;;;;5023716;28;20419;-45
2021/01/14 01:02:40;;;;;;;1.40;1.10;;;0.90;99.90;;;;;;5024645;28;20116;-45
2021/01/14 01:05:07;;;;;;;3.13;1.73;;;0.80;99.90;;;;;;5022987;28;20061;-44
2021/01/14 01:07:32;;;;;;;4.38;1.75;;;0.90;99.90;;;;;;5023942;28;20488;-43
2021/01/14 01:09:58;;;;;;;2.13;1.70;;;0.90;99.90;;;;;;5029862;28;20051;-47
2021/01/14 01:12:23;;;;;;;3.38;1.70;;;0.90;99.90;;;;;;5027999;28;20569;-45
2021/01/14 01:14:49;;;;;;;3.00;1.77;;;0.90;99.90;;;;;;5026025;28;20048;-45
2021/01/14 01:17:14;;;;;;;2.20;1.70;;;0.90;99.90;;;;;;5022298;28;20058;-45
2021/01/14 01:19:40;;;;;;;3.42;1.70;;;0.90;99.90;;;;;;5027344;28;20052;-45
2021/01/14 01:22:05;;;;;;;2.30;1.50;;;0.90;99.90;;;;;;5024966;28;20034;-43
2021/01/14 01:24:31;;;;;;;3.08;1.45;;;1.00;99.90;;;;;;5026420;28;20034;-43
2021/01/14 01:26:56;;;;;;;2.45;1.55;;;1.00;99.90;;;;;;5027411;28;20127;-42
2021/01/14 01:29:22;;;;;;;1.92;1.33;;;1.00;99.90;;;;;;5027987;28;20048;-43
2021/01/14 01:31:47;;;;;;;2.15;1.00;;;1.00;99.90;;;;;;5023344;28;20042;-45
2021/01/14 01:34:13;;;;;;;3.83;1.38;;;1.00;99.90;;;;;;5024621;28;20041;-47
2021/01/14 01:36:38;;;;;;;1.52;1.10;;;1.00;99.90;;;;;;5025826;28;20400;-46
2021/01/14 01:39:05;;;;;;;1.40;1.00;;;1.10;99.90;;;;;;5040640;28;20160;-46
2021/01/14 01:41:30;;;;;;;3.08;1.15;;;1.10;99.90;;;;;;5035643;28;20039;-42
2021/01/14 01:43:56;;;;;;;2.03;1.05;;;1.00;99.90;;;;;;5026106;28;20038;-43
2021/01/14 01:46:24;;;;;;;1.83;1.00;;;1.10;99.90;;;;;;5030665;28;20152;-46
2021/01/14 01:48:50;;;;;;;2.13;1.63;;;1.10;99.90;;;;;;5024957;28;20045;-47
2021/01/14 01:51:16;;;;;;;0.98;0.80;;;1.10;99.90;;;;;;5028290;28;20594;-43
2021/01/14 01:53:42;;;;;;;1.40;0.90;;;1.10;99.90;;;;;;5031279;28;20495;-42
2021/01/14 01:56:08;;;;;;;2.95;1.10;;;1.10;99.90;;;;;;5033585;28;20041;-46
2021/01/14 01:58:38;;;;;;;2.83;1.10;;;1.10;99.90;;;;;;5032690;28;20080;-45
2021/01/14 02:01:03;;;;;;;1.85;0.90;;;1.00;99.90;;;;;;5032043;28;20026;-46
2021/01/14 02:03:32;;;;;;;0.88;0.70;;;0.90;99.90;;;;;;5030113;28;20028;-44
2021/01/14 02:05:58;;;;;;;0.70;0.70;;;0.90;99.90;;;;;;5027461;28;20030;-47
2021/01/14 02:08:47;;;;;;;1.58;1.13;;;0.80;99.90;;;;;;5031692;28;20036;-45
2021/01/14 02:11:34;;;;;;;1.92;1.20;;;0.60;99.90;;;;;;5032474;28;20415;-46
2021/01/14 02:14:07;;;;;;;2.28;0.90;;;0.50;99.90;;;;;;5029833;28;20025;-43
2021/01/14 02:16:37;;;;;;;1.48;1.10;;;0.50;99.90;;;;;;5031908;28;20136;-44
2021/01/14 02:19:04;;;;;;;1.27;0.93;;;0.60;99.90;;;;;;5030989;28;20064;-44
2021/01/14 02:21:30;;;;;;;1.73;1.10;;;0.60;99.90;;;;;;5031218;28;20060;-45
2021/01/14 02:24:07;;;;;;;2.35;1.08;;;0.60;99.90;;;;;;5031598;28;20021;-46
2021/01/14 02:26:34;;;;;;;1.50;0.95;;;0.70;99.90;;;;;;5024505;28;20500;-44
2021/01/14 02:29:00;;;;;;;1.45;0.93;;;0.60;99.90;;;;;;5043320;28;20022;-43
2021/01/14 02:31:26;;;;;;;1.52;0.90;;;0.70;99.90;;;;;;5027622;28;20033;-44
2021/01/14 02:33:54;;;;;;;1.67;0.77;;;0.70;99.90;;;;;;5030874;28;20032;-43
2021/01/14 02:36:22;;;;;;;2.30;0.80;;;0.70;99.90;;;;;;5029715;28;20030;-44
2021/01/14 02:38:47;;;;;;;0.85;0.70;;;0.70;99.90;;;;;;5030617;28;20033;-48
2021/01/14 02:41:13;;;;;;;1.08;0.70;;;0.70;99.90;;;;;;5032265;28;20658;-45
2021/01/14 02:43:39;;;;;;;2.08;0.80;;;0.80;99.90;;;;;;5020063;28;20385;-44
2021/01/14 02:46:06;;;;;;;1.02;0.85;;;0.80;99.90;;;;;;5028061;28;20681;-43
2021/01/14 02:48:39;;;;;;;1.52;0.65;;;0.80;99.90;;;;;;5026232;28;20021;-47
2021/01/14 02:51:22;;;;;;;0.65;0.65;;;0.80;99.90;;;;;;5028080;28;20042;-43
2021/01/14 02:53:50;;;;;;;1.35;0.65;;;0.80;99.90;;;;;;5026849;28;20708;-45
2021/01/14 02:56:17;;;;;;;2.72;1.17;;;0.80;99.90;;;;;;5027135;28;20049;-42
2021/01/14 02:58:43;;;;;;;1.90;0.95;;;0.80;99.90;;;;;;5026765;28;20021;-44
2021/01/14 03:01:08;;;;;;;1.27;1.17;;;0.80;99.90;;;;;;5027082;28;20072;-43
2021/01/14 03:03:34;;;;;;;3.85;1.65;;;0.80;99.90;;;;;;5030970;28;20037;-45
2021/01/14 03:05:59;;;;;;;2.75;1.73;;;0.80;99.90;;;;;;5025206;28;20038;-47
2021/01/14 03:08:25;;;;;;;6.00;2.17;;;0.80;99.90;;;;;;5031167;28;20030;-47
2021/01/14 03:10:50;;;;;;;4.97;3.17;;;0.80;99.90;;;;;;5026727;28;20033;-45
2021/01/14 03:13:16;;;;;;;10.93;4.40;;;0.80;99.90;;;;;;5017909;28;20380;-42
2021/01/14 03:15:41;;;;;;;11.82;4.20;;;0.80;99.90;;;;;;5029324;28;20028;-46
2021/01/14 03:18:10;;;;;;;9.98;4.63;;;0.80;99.90;;;;;;5032564;28;20536;-44
2021/01/14 03:20:36;;;;;;;13.80;4.97;;;0.80;99.90;;;;;;5031126;28;20018;-45
2021/01/14 03:23:01;;;;;;;15.02;5.55;;;0.90;99.90;;;;;;5029836;28;20079;-45
2021/01/14 03:25:27;;;;;;;16.95;7.28;;;0.90;99.90;;;;;;5027811;28;20025;-43
2021/01/14 03:27:52;;;;;;;17.45;7.43;;;0.80;99.90;;;;;;5022764;28;20481;-42
2021/01/14 03:30:19;;;;;;;17.58;8.05;;;0.90;99.90;;;;;;5030457;28;20076;-44
2021/01/14 03:32:45;;;;;;;16.20;7.40;;;0.90;99.90;;;;;;5032442;28;20388;-43
2021/01/14 03:35:11;;;;;;;14.77;6.95;;;0.90;99.90;;;;;;5026181;28;20040;-47
2021/01/14 03:37:38;;;;;;;16.40;8.13;;;0.90;99.90;;;;;;5025238;28;20241;-43
2021/01/14 03:40:05;;;;;;;21.38;8.50;;;0.90;99.90;;;;;;5028041;28;20055;-43
2021/01/14 03:42:31;;;;;;;22.58;9.73;;;0.90;99.90;;;;;;5031607;28;20116;-46
2021/01/14 03:44:56;;;;;;;18.75;9.05;;;0.90;99.90;;;;;;5030173;28;20608;-44
2021/01/14 03:47:24;;;;;;;17.98;8.90;;;1.00;99.90;;;;;;5028784;28;20157;-44
2021/01/14 03:49:49;;;;;;;22.00;10.38;;;1.00;99.90;;;;;;5029377;28;20029;-42
2021/01/14 03:52:15;;;;;;;20.40;9.95;;;1.00;99.90;;;;;;5024115;28;20041;-44
2021/01/14 03:54:44;;;;;;;26.73;12.45;;;1.00;99.90;;;;;;5029958;28;20476;-44
2021/01/14 03:57:09;;;;;;;20.30;10.80;;;1.00;99.90;;;;;;5026166;28;20030;-46
2021/01/14 03:59:35;;;;;;;19.27;10.45;;;1.10;99.90;;;;;;5024252;28;20558;-45
2021/01/14 04:02:06;;;;;;;21.48;10.73;;;1.00;99.90;;;;;;5031159;28;20033;-46
2021/01/14 04:04:33;;;;;;;19.65;9.60;;;1.00;99.90;;;;;;5031052;28;20030;-46
2021/01/14 04:06:58;;;;;;;15.32;8.23;;;1.10;99.90;;;;;;5029945;28;20040;-43
2021/01/14 04:09:24;;;;;;;20.10;8.48;;;1.10;99.90;;;;;;5026083;28;20432;-42
2021/01/14 04:11:49;;;;;;;16.50;8.20;;;1.10;99.90;;;;;;5025117;28;20033;-44
2021/01/14 04:14:14;;;;;;;15.38;8.23;;;1.10;99.90;;;;;;5032821;28;20033;-42
2021/01/14 04:16:40;;;;;;;16.95;9.70;;;1.10;99.90;;;;;;5023226;28;20029;-43
2021/01/14 04:19:05;;;;;;;20.75;8.82;;;1.10;99.90;;;;;;5029215;28;20033;-45
2021/01/14 04:21:31;;;;;;;19.30;9.68;;;1.10;99.90;;;;;;5027714;28;20412;-44
2021/01/14 04:23:56;;;;;;;17.92;10.32;;;1.10;99.90;;;;;;5021006;28;20022;-44
2021/01/14 04:26:22;;;;;;;15.73;8.02;;;1.10;99.90;;;;;;5029840;28;20493;-45
2021/01/14 04:28:47;;;;;;;17.98;9.18;;;1.10;99.90;;;;;;5025224;28;20061;-42
2021/01/14 04:31:13;;;;;;;17.35;8.40;;;1.20;99.90;;;;;;5029075;28;20079;-43
2021/01/14 04:33:38;;;;;;;18.45;8.02;;;1.20;99.90;;;;;;5031509;28;20507;-46
2021/01/14 04:36:05;;;;;;;17.92;7.72;;;1.20;99.90;;;;;;5028276;28;20648;-42
2021/01/14 04:38:30;;;;;;;18.70;8.77;;;1.20;99.90;;;;;;5029774;28;20079;-42
2021/01/14 04:40:58;;;;;;;19.20;9.20;;;1.20;99.90;;;;;;5023893;28;20502;-42
2021/01/14 04:43:26;;;;;;;22.73;11.20;;;1.20;99.90;;;;;;5027656;28;20053;-42
2021/01/14 04:46:04;;;;;;;19.30;10.82;;;1.20;99.90;;;;;;5025797;28;20104;-45
2021/01/14 04:48:38;;;;;;;18.98;9.18;;;1.20;99.90;;;;;;5021196;28;20014;-43
2021/01/14 04:51:14;;;;;;;23.40;12.05;;;1.30;99.90;;;;;;5026129;28;20124;-43
2021/01/14 04:53:47;;;;;;;23.25;8.70;;;1.30;99.90;;;;;;5023520;28;20433;-45
2021/01/14 04:56:15;;;;;;;21.17;10.52;;;1.30;99.90;;;;;;5028360;28;20112;-45
2021/01/14 04:58:45;;;;;;;25.92;10.38;;;1.30;99.90;;;;;;5029168;28;20074;-50
2021/01/14 05:01:19;;;;;;;22.42;10.45;;;1.20;99.90;;;;;;5031210;28;20487;-42
2021/01/14 05:03:47;;;;;;;29.10;10.95;;;1.20;99.90;;;;;;5031061;28;20022;-43
2021/01/14 05:06:19;;;;;;;24.45;10.60;;;1.20;99.90;;;;;;5027185;28;20022;-44
2021/01/14 05:08:46;;;;;;;24.80;10.25;;;1.20;99.90;;;;;;5033561;28;20017;-47
2021/01/14 05:11:16;;;;;;;21.55;9.23;;;1.30;99.90;;;;;;5028875;28;20033;-43
2021/01/14 05:13:44;;;;;;;16.55;8.40;;;1.30;99.90;;;;;;5024420;28;20029;-43
2021/01/14 05:16:09;;;;;;;22.70;11.07;;;1.30;99.90;;;;;;5021687;28;20389;-45
2021/01/14 05:18:35;;;;;;;19.17;8.50;;;1.30;99.90;;;;;;5027325;28;20028;-45
2021/01/14 05:21:01;;;;;;;22.58;10.10;;;1.30;99.90;;;;;;5026447;28;20030;-42
2021/01/14 05:23:28;;;;;;;22.88;8.75;;;1.30;99.90;;;;;;5023521;28;20049;-43
2021/01/14 05:25:54;;;;;;;20.70;8.35;;;1.30;99.90;;;;;;5025921;28;20033;-42
2021/01/14 05:28:22;;;;;;;17.10;8.95;;;1.30;99.90;;;;;;5028340;28;20022;-43
2021/01/14 05:30:48;;;;;;;20.92;9.73;;;1.30;99.90;;;;;;5026033;28;20025;-45
2021/01/14 05:33:23;;;;;;;24.23;9.57;;;1.30;99.90;;;;;;5029703;28;20027;-46
2021/01/14 05:35:53;;;;;;;21.48;9.20;;;1.40;99.90;;;;;;5024899;28;20380;-43
2021/01/14 05:38:30;;;;;;;21.33;9.82;;;1.40;99.90;;;;;;5023712;28;20095;-48
2021/01/14 05:41:11;;;;;;;18.42;8.88;;;1.40;99.90;;;;;;5028321;28;20108;-43
2021/01/14 05:43:54;;;;;;;20.45;9.32;;;1.40;99.90;;;;;;5028545;28;20089;-45
2021/01/14 05:46:31;;;;;;;22.55;9.90;;;1.40;99.90;;;;;;5028480;28;20026;-43
2021/01/14 05:48:58;;;;;;;17.15;8.60;;;1.30;99.90;;;;;;5028226;28;20036;-45
2021/01/14 05:51:26;;;;;;;16.60;8.90;;;1.40;99.90;;;;;;5027295;28;20056;-45
2021/01/14 05:54:05;;;;;;;22.05;9.88;;;1.40;99.90;;;;;;5026775;28;20033;-46
2021/01/14 05:56:34;;;;;;;14.43;7.75;;;1.40;99.90;;;;;;5030017;28;20037;-46
2021/01/14 05:59:01;;;;;;;15.05;7.97;;;1.30;99.90;;;;;;5026117;28;20518;-44
2021/01/14 06:01:26;;;;;;;14.82;7.55;;;1.30;99.90;;;;;;5023968;28;20030;-43
2021/01/14 06:03:52;;;;;;;10.77;7.15;;;1.30;99.90;;;;;;5028008;28;20030;-43
2021/01/14 06:06:19;;;;;;;15.23;8.48;;;1.30;99.90;;;;;;5033377;28;20413;-47
2021/01/14 06:08:45;;;;;;;17.67;8.50;;;1.30;99.90;;;;;;5028956;28;20035;-44
2021/01/14 06:11:26;;;;;;;13.60;6.65;;;1.30;99.90;;;;;;5026675;28;20041;-45
2021/01/14 06:13:52;;;;;;;13.40;8.05;;;1.30;99.90;;;;;;5031626;28;20072;-43
2021/01/14 06:16:17;;;;;;;13.50;7.80;;;1.30;99.90;;;;;;5029362;28;20084;-43
2021/01/14 06:19:08;;;;;;;12.73;7.20;;;1.20;99.90;;;;;;5033082;28;20040;-44
2021/01/14 06:21:45;;;;;;;14.75;7.35;;;1.30;99.90;;;;;;5031138;28;20064;-43
2021/01/14 06:24:24;;;;;;;13.02;6.47;;;1.20;99.90;;;;;;5032800;28;20024;-46
2021/01/14 06:26:51;;;;;;;13.27;8.07;;;1.10;99.90;;;;;;5029679;28;20496;-43
2021/01/14 06:29:23;;;;;;;17.92;8.45;;;1.00;99.90;;;;;;5030450;28;20030;-42
2021/01/14 06:31:48;;;;;;;16.30;7.20;;;0.90;99.90;;;;;;5032961;28;20048;-45
2021/01/14 06:34:19;;;;;;;14.57;7.60;;;0.70;99.90;;;;;;5028281;28;20029;-43
2021/01/14 06:36:49;;;;;;;19.23;9.07;;;0.60;99.90;;;;;;5027932;28;20392;-43
2021/01/14 06:39:16;;;;;;;13.02;7.13;;;0.50;99.90;;;;;;5027048;28;20067;-42
2021/01/14 06:41:44;;;;;;;20.58;10.25;;;0.40;99.90;;;;;;5029119;28;20022;-42
2021/01/14 06:44:12;;;;;;;17.55;8.15;;;0.20;99.90;;;;;;5027764;28;20078;-42
2021/01/14 06:46:38;;;;;;;22.98;10.05;;;0.10;99.90;;;;;;5032005;28;20028;-46
2021/01/14 06:49:14;;;;;;;13.38;7.05;;;0.00;99.90;;;;;;5032235;28;20076;-42
2021/01/14 06:51:56;;;;;;;13.98;7.22;;;-0.10;99.90;;;;;;5029065;28;20053;-44
2021/01/14 06:54:25;;;;;;;13.40;7.53;;;-0.20;99.90;;;;;;5030076;28;20094;-44
2021/01/14 06:57:10;;;;;;;14.40;7.32;;;-0.30;99.90;;;;;;5028784;28;20030;-45
2021/01/14 06:59:37;;;;;;;16.08;7.38;;;-0.40;99.90;;;;;;5027584;28;20504;-43
2021/01/14 07:02:05;;;;;;;15.55;7.95;;;-0.40;99.90;;;;;;5031587;28;20495;-43
2021/01/14 07:04:43;;;;;;;19.27;8.50;;;-0.50;99.90;;;;;;5036171;28;20480;-46
2021/01/14 07:07:27;;;;;;;19.80;9.38;;;-0.50;99.90;;;;;;5027311;28;20025;-48
2021/01/14 07:10:08;;;;;;;14.02;7.63;;;-0.60;99.90;;;;;;5025902;28;20033;-45
2021/01/14 07:12:38;;;;;;;18.33;7.68;;;-0.60;99.90;;;;;;5027440;28;20076;-46
2021/01/14 07:15:09;;;;;;;12.93;7.25;;;-0.70;99.90;;;;;;5029126;28;20037;-45
2021/01/14 07:17:37;;;;;;;15.80;7.88;;;-0.70;99.90;;;;;;5026034;28;20041;-42
2021/01/14 07:20:14;;;;;;;16.48;7.80;;;-0.70;99.90;;;;;;5024338;28;20044;-44
2021/01/14 07:23:01;;;;;;;18.20;8.75;;;-0.70;99.90;;;;;;5022273;28;20075;-44
2021/01/14 07:25:27;;;;;;;16.80;8.43;;;-0.70;99.90;;;;;;5024134;28;20056;-45
2021/01/14 07:27:53;;;;;;;11.60;6.00;;;-0.70;99.90;;;;;;5021190;28;20041;-47
2021/01/14 07:30:19;;;;;;;19.98;9.23;;;-0.70;99.90;;;;;;5022932;28;20083;-46
2021/01/14 07:33:04;;;;;;;14.95;6.88;;;-0.70;99.90;;;;;;5029921;28;20025;-42
2021/01/14 07:35:36;;;;;;;14.73;7.45;;;-0.70;99.90;;;;;;5023599;28;20029;-41
2021/01/14 07:38:04;;;;;;;19.45;9.00;;;-0.60;99.90;;;;;;5022761;28;20033;-46
2021/01/14 07:40:31;;;;;;;17.25;7.60;;;-0.70;99.90;;;;;;5034913;28;20026;-43
2021/01/14 07:42:58;;;;;;;19.42;7.75;;;-0.70;99.90;;;;;;5026211;28;20029;-43
2021/01/14 07:45:24;;;;;;;13.60;6.57;;;-0.60;99.90;;;;;;5026281;28;20029;-45
2021/01/14 07:47:49;;;;;;;18.67;8.27;;;-0.60;99.90;;;;;;5015719;28;20645;-45
2021/01/14 07:50:28;;;;;;;18.08;7.63;;;-0.50;99.90;;;;;;5026988;28;20034;-46
2021/01/14 07:52:58;;;;;;;16.77;6.95;;;-0.40;99.90;;;;;;5021301;28;20057;-42
2021/01/14 07:55:36;;;;;;;21.63;8.35;;;-0.30;99.90;;;;;;5021889;28;20040;-44
2021/01/14 07:58:23;;;;;;;16.52;7.50;;;-0.30;99.90;;;;;;5026290;28;20030;-43
2021/01/14 08:00:59;;;;;;;19.27;8.50;;;-0.20;99.90;;;;;;5028303;28;20048;-44
2021/01/14 08:03:31;;;;;;;;;;;-0.10;99.90;;;;;;5020244;28;20034;-42
2021/01/14 08:05:57;;;;;;;18.30;6.72;;;0.10;99.90;;;;;;5026592;28;19909;-43
2021/01/14 08:08:25;;;;;;;16.25;7.72;;;0.40;99.90;;;;;;5025674;28;20021;-42
2021/01/14 08:11:20;;;;;;;16.60;7.50;;;0.70;99.90;;;;;;5029836;28;20100;-45
2021/01/14 08:14:16;;;;;;;13.43;7.03;;;1.00;99.90;;;;;;5025265;28;20022;-42
2021/01/14 08:16:43;;;;;;;20.65;7.53;;;1.30;99.90;;;;;;5021169;28;20041;-43
2021/01/14 08:19:31;;;;;;;15.20;7.28;;;1.50;99.90;;;;;;5027406;28;20033;-42
2021/01/14 08:21:59;;;;;;;15.68;6.85;;;1.60;99.90;;;;;;5028722;28;20053;-44
2021/01/14 08:24:53;;;;;;;12.00;5.95;;;1.70;99.90;;;;;;5025789;28;20025;-43
2021/01/14 08:27:21;;;;;;;11.43;5.07;;;1.60;99.90;;;;;;5025471;28;20022;-43
2021/01/14 08:30:01;;;;;;;13.30;5.78;;;1.50;99.90;;;;;;5029518;28;20105;-44
2021/01/14 08:32:32;;;;;;;12.65;5.65;;;1.40;99.90;;;;;;5029504;28;20543;-43
2021/01/14 08:35:07;;;;;;;11.32;5.90;;;1.40;99.90;;;;;;5025291;28;20036;-45
2021/01/14 08:37:53;;;;;;;12.35;6.20;;;1.50;99.90;;;;;;5025279;28;20029;-42
2021/01/14 08:40:27;;;;;;;14.88;5.45;;;1.90;99.90;;;;;;5027805;28;20558;-42
2021/01/14 08:43:05;;;;;;;12.43;6.25;;;2.10;99.90;;;;;;5018379;28;20037;-42
2021/01/14 08:45:54;;;;;;;10.95;6.53;;;2.10;99.90;;;;;;5042051;28;20419;-42
2021/01/14 08:48:25;;;;;;;11.85;5.38;;;2.00;99.90;;;;;;5026550;28;20099;-42
2021/01/14 08:51:01;;;;;;;14.07;6.22;;;2.00;99.90;;;;;;5026782;28;20041;-46
2021/01/14 08:53:37;;;;;;;13.32;6.10;;;2.10;99.90;;;;;;5026468;28;20373;-43
2021/01/14 08:56:08;;;;;;;8.77;4.57;;;2.10;99.90;;;;;;5026516;28;20030;-43
2021/01/14 08:58:42;;;;;;;6.72;4.28;;;2.20;99.90;;;;;;5029198;28;20021;-44
2021/01/14 09:01:18;;;;;;;9.65;4.63;;;2.30;99.90;;;;;;5030807;28;20041;-47
2021/01/14 09:03:47;;;;;;;6.78;4.25;;;2.40;99.90;;;;;;5024913;28;20022;-42
2021/01/14 09:06:15;;;;;;;10.85;4.50;;;2.50;99.90;;;;;;5026665;28;20388;-42
2021/01/14 09:08:41;;;;;;;8.95;3.90;;;2.70;99.90;;;;;;5023511;28;20022;-43
2021/01/14 09:11:06;;;;;;;6.95;3.80;;;2.80;99.90;;;;;;5026321;28;20033;-42
2021/01/14 09:13:33;;;;;;;6.35;3.50;;;3.00;99.90;;;;;;5029860;28;20037;-42
2021/01/14 09:16:08;;;;;;;8.90;4.25;;;3.00;99.90;;;;;;5029238;28;20033;-44
2021/01/14 09:18:36;;;;;;;6.35;3.30;;;3.20;99.90;;;;;;5024166;28;20045;-42
2021/01/14 09:21:04;;;;;;;6.78;3.25;;;3.30;99.90;;;;;;5014472;28;20499;-43
2021/01/14 09:23:35;;;;;;;6.43;3.38;;;3.30;99.90;;;;;;5022407;28;20500;-43
2021/01/14 09:26:18;;;;;;;8.48;3.00;;;3.40;99.90;;;;;;5027010;28;20036;-42
2021/01/14 09:28:48;;;;;;;10.88;3.58;;;3.40;99.90;;;;;;5029860;28;20032;-42
2021/01/14 09:31:14;;;;;;;7.93;3.15;;;3.30;99.90;;;;;;5031305;28;20409;-44
2021/01/14 09:33:42;;;;;;;7.15;3.05;;;3.30;99.90;;;;;;5024161;28;20029;-45
2021/01/14 09:36:28;;;;;;;6.85;2.53;;;3.30;99.90;;;;;;5026212;28;20380;-42
2021/01/14 09:38:56;;;;;;;4.80;2.90;;;3.30;99.90;;;;;;5031498;28;20044;-42
2021/01/14 09:41:32;;;;;;;4.30;2.72;;;3.30;99.90;;;;;;5029199;28;20066;-42
2021/01/14 09:43:59;;;;;;;4.85;2.65;;;3.30;99.90;;;;;;5029583;28;20037;-44
2021/01/14 09:46:40;;;;;;;5.78;3.47;;;3.30;99.90;;;;;;5028625;28;20547;-45
2021/01/14 09:49:09;;;;;;;5.22;2.90;;;3.30;99.90;;;;;;5031938;28;20504;-43
2021/01/14 09:51:35;;;;;;;6.32;2.70;;;3.30;99.90;;;;;;5032108;28;20053;-43
2021/01/14 09:54:06;;;;;;;5.85;2.65;;;3.30;99.90;;;;;;5028897;28;20493;-42
2021/01/14 09:56:37;;;;;;;6.82;3.70;;;3.30;99.90;;;;;;5026245;28;20103;-46
2021/01/14 09:59:08;;;;;;;4.85;2.63;;;3.30;99.90;;;;;;5031071;28;20033;-42
2021/01/14 10:01:39;;;;;;;3.83;2.60;;;3.30;99.90;;;;;;5030390;28;20014;-43
2021/01/14 10:04:09;;;;;;;5.82;2.88;;;3.30;99.90;;;;;;5030839;28;20033;-43
2021/01/14 10:06:41;;;;;;;8.07;3.10;;;3.30;99.90;;;;;;5028798;28;20021;-43
2021/01/14 10:09:08;;;;;;;5.10;2.40;;;3.30;99.90;;;;;;5028504;28;20056;-44
2021/01/14 10:11:35;;;;;;;5.50;2.55;;;3.20;99.90;;;;;;5031411;28;20552;-44
2021/01/14 10:14:01;;;;;;;5.00;2.40;;;3.00;99.90;;;;;;5031229;28;20044;-42
2021/01/14 10:16:28;;;;;;;4.72;1.80;;;2.90;99.90;;;;;;5031340;28;20155;-43
2021/01/14 10:19:08;;;;;;;3.25;2.30;;;2.90;99.90;;;;;;5026552;28;20090;-42
2021/01/14 10:21:37;;;;;;;4.20;2.10;;;2.90;99.90;;;;;;5029202;28;20211;-46
2021/01/14 10:24:03;;;;;;;5.05;2.45;;;2.90;99.90;;;;;;5028167;28;20037;-45
2021/01/14 10:26:30;;;;;;;4.30;2.88;;;3.00;99.90;;;;;;5026400;28;20107;-43
2021/01/14 10:28:56;;;;;;;9.18;2.88;;;3.00;99.90;;;;;;5030038;28;20104;-42
2021/01/14 10:31:35;;;;;;;4.78;2.30;;;3.00;99.90;;;;;;5032642;28;20105;-44
2021/01/14 10:34:01;;;;;;;4.78;2.15;;;3.00;99.90;;;;;;5029108;28;20021;-42
2021/01/14 10:36:48;;;;;;;4.55;2.35;;;3.10;99.90;;;;;;5032405;28;20108;-42
2021/01/14 10:39:17;;;;;;;8.65;2.60;;;3.10;99.90;;;;;;5023202;28;20055;-44
2021/01/14 10:41:43;;;;;;;7.88;2.67;;;3.10;99.90;;;;;;5032512;28;20048;-42
2021/01/14 10:44:09;;;;;;;5.93;2.40;;;3.10;99.90;;;;;;5032001;28;20399;-42
2021/01/14 10:46:35;;;;;;;3.35;2.25;;;3.20;99.90;;;;;;5028348;28;20034;-42
2021/01/14 10:49:11;;;;;;;4.78;2.50;;;3.30;99.90;;;;;;5027218;28;20057;-42
2021/01/14 10:51:39;;;;;;;2.72;2.00;;;3.50;99.90;;;;;;5028948;28;20501;-46
2021/01/14 10:54:04;;;;;;;4.60;2.00;;;3.60;99.90;;;;;;5032183;28;20033;-42
2021/01/14 10:56:30;;;;;;;3.55;2.00;;;3.80;99.90;;;;;;5032001;28;20026;-47
2021/01/14 10:58:57;;;;;;;4.43;2.28;;;3.90;99.90;;;;;;5031421;28;20055;-47
2021/01/14 11:01:22;;;;;;;4.78;2.95;;;4.00;99.90;;;;;;5032586;28;20018;-42
2021/01/14 11:03:49;;;;;;;4.90;2.72;;;4.00;99.90;;;;;;5025932;28;20388;-44
2021/01/14 11:06:39;;;;;;;5.35;3.00;;;4.00;99.90;;;;;;5025192;28;20029;-41
2021/01/14 11:09:06;;;;;;;5.03;3.00;;;4.10;99.90;;;;;;5024457;28;20041;-42
2021/01/14 11:11:33;;;;;;;5.82;2.90;;;4.20;99.90;;;;;;5031553;28;20022;-42
2021/01/14 11:13:58;;;;;;;5.88;3.90;;;4.20;99.90;;;;;;5030587;28;20045;-50
2021/01/14 11:16:26;;;;;;;8.38;3.90;;;4.20;99.90;;;;;;5042235;28;20045;-44
2021/01/14 11:18:56;;;;;;;8.07;3.85;;;4.20;99.90;;;;;;5023434;28;20087;-43
2021/01/14 11:21:30;;;;;;;8.27;4.55;;;4.30;99.90;;;;;;5026018;28;20029;-46
2021/01/14 11:23:56;;;;;;;7.90;3.70;;;4.30;99.90;;;;;;5030156;28;20033;-45
2021/01/14 11:26:22;;;;;;;10.13;4.43;;;4.50;99.90;;;;;;5029179;28;20099;-45
2021/01/14 11:28:48;;;;;;;6.60;3.92;;;4.40;99.90;;;;;;5023446;28;20034;-42
2021/01/14 11:31:16;;;;;;;10.05;3.75;;;4.40;99.90;;;;;;5024309;28;20434;-46
2021/01/14 11:33:42;;;;;;;7.22;3.90;;;4.30;99.90;;;;;;5030756;28;20037;-44
2021/01/14 11:36:12;;;;;;;10.38;4.93;;;4.30;99.90;;;;;;5026210;28;20025;-45
2021/01/14 11:38:40;;;;;;;6.53;3.92;;;4.30;99.90;;;;;;5026185;28;20156;-44
2021/01/14 11:41:05;;;;;;;5.53;4.00;;;4.30;99.90;;;;;;5024946;28;20068;-42
2021/01/14 11:43:33;;;;;;;9.68;4.38;;;4.40;99.90;;;;;;5023754;28;20056;-42
2021/01/14 11:45:59;;;;;;;5.22;3.33;;;4.40;99.90;;;;;;5023941;28;20067;-46
2021/01/14 11:48:25;;;;;;;9.40;4.78;;;4.50;99.90;;;;;;5027915;28;20124;-44
2021/01/14 11:50:50;;;;;;;7.45;4.50;;;4.50;99.90;;;;;;5024865;28;21010;-42
2021/01/14 11:53:16;;;;;;;6.93;3.88;;;4.60;99.90;;;;;;5028064;28;20037;-42
2021/01/14 11:55:41;;;;;;;6.70;4.32;;;4.60;99.90;;;;;;5026201;28;20026;-44
2021/01/14 11:58:07;;;;;;;8.25;4.43;;;4.50;99.90;;;;;;5029357;28;20029;-44
2021/01/14 12:00:33;;;;;;;7.53;4.90;;;4.40;99.90;;;;;;5030274;28;20040;-45
2021/01/14 12:03:01;;;;;;;5.53;3.95;;;4.30;99.90;;;;;;5028232;28;20025;-41
2021/01/14 12:05:27;;;;;;;6.63;3.95;;;4.10;99.90;;;;;;5025130;28;20026;-44
2021/01/14 12:07:52;;;;;;;6.25;4.47;;;4.00;99.90;;;;;;5027725;28;20044;-45
2021/01/14 12:10:18;;;;;;;6.78;4.32;;;3.90;99.90;;;;;;5030212;28;20030;-44
2021/01/14 12:12:44;;;;;;;7.40;4.25;;;3.90;99.90;;;;;;5030413;28;20452;-45
2021/01/14 12:15:09;;;;;;;7.35;4.07;;;3.80;99.90;;;;;;5029789;28;20049;-44
2021/01/14 12:17:35;;;;;;;8.02;4.20;;;3.80;99.90;;;;;;5026546;28;20037;-46
2021/01/14 12:20:00;;;;;;;8.05;4.93;;;3.80;99.90;;;;;;5026266;28;20500;-45
2021/01/14 12:22:26;;;;;;;8.43;5.43;;;3.70;99.90;;;;;;5022490;28;20030;-43
2021/01/14 12:24:52;;;;;;;7.30;4.32;;;3.70;99.90;;;;;;5026722;28;20036;-46
2021/01/14 12:27:18;;;;;;;7.78;4.50;;;3.70;99.90;;;;;;5028548;28;20029;-46
2021/01/14 12:29:43;;;;;;;6.93;4.88;;;3.70;99.90;;;;;;5027177;28;20511;-45
2021/01/14 12:32:09;;;;;;;9.90;5.13;;;3.80;99.90;;;;;;5030234;28;20030;-43
2021/01/14 12:34:35;;;;;;;11.60;6.90;;;3.70;99.90;;;;;;5029957;28;20039;-46
2021/01/14 12:37:00;;;;;;;9.30;6.43;;;3.70;99.90;;;;;;5029635;28;20593;-42
2021/01/14 12:39:26;;;;;;;6.60;4.55;;;3.60;99.90;;;;;;5026058;28;20025;-44
2021/01/14 12:41:52;;;;;;;8.10;4.97;;;3.60;99.90;;;;;;5025241;28;20029;-44
2021/01/14 12:44:18;;;;;;;7.97;4.85;;;3.50;99.90;;;;;;5022181;28;20033;-42
2021/01/14 12:46:48;;;;;;;9.68;5.38;;;3.40;99.90;;;;;;5025283;28;20083;-42
2021/01/14 12:49:16;;;;;;;8.20;5.00;;;3.40;99.90;;;;;;5021661;28;20037;-42
2021/01/14 12:51:42;;;;;;;10.40;5.38;;;3.40;99.90;;;;;;5024534;28;20057;-44
2021/01/14 12:54:08;;;;;;;8.95;5.22;;;3.40;99.90;;;;;;5029813;28;20488;-44
2021/01/14 12:56:34;;;;;;;10.73;5.85;;;3.40;99.90;;;;;;5020812;28;20034;-42
2021/01/14 12:59:02;;;;;;;8.60;5.25;;;3.40;99.90;;;;;;5029322;28;20033;-46
2021/01/14 13:01:34;;;;;;;7.28;4.95;;;3.40;99.90;;;;;;5026218;28;20995;-42